sensor_id;sensor_type;location;lat;lon;timestamp;pressure;altitude;pressure_sealevel;temperature;humidity
4570;BME280;2297;51.442;6.996;2023-03-03T00:00:33;100998.88;;;4.71;48.11
4570;BME280;2297;51.442;6.996;2023-03-03T00:03:03;101005.91;;;4.75;48.18
4570;BME280;2297;51.442;6.996;2023-03-03T00:05:32;100992.13;;;4.89;47.97
4570;BME280;2297;51.442;6.996;2023-03-03T00:07:59;100995.69;;;4.94;47.58
4570;BME280;2297;51.442;6.996;2023-03-03T00:10:26;100995.66;;;4.91;47.58
4570;BME280;2297;51.442;6.996;2023-03-03T00:12:53;101005.22;;;4.89;47.73
4570;BME280;2297;51.442;6.996;2023-03-03T00:15:22;101000.97;;;4.97;47.45
4570;BME280;2297;51.442;6.996;2023-03-03T00:17:49;101003.59;;;4.98;47.32
4570;BME280;2297;51.442;6.996;2023-03-03T00:20:34;101008.78;;;4.94;47.25
4570;BME280;2297;51.442;6.996;2023-03-03T00:23:19;101009.47;;;4.82;47.49
4570;BME280;2297;51.442;6.996;2023-03-03T00:25:47;101004.31;;;4.87;47.44
4570;BME280;2297;51.442;6.996;2023-03-03T00:28:21;101006.03;;;4.85;47.84
4570;BME280;2297;51.442;6.996;2023-03-03T00:30:49;101006.94;;;4.87;47.57
4570;BME280;2297;51.442;6.996;2023-03-03T00:33:26;101010.53;;;4.93;47.50
4570;BME280;2297;51.442;6.996;2023-03-03T00:35:56;101015.75;;;4.92;47.46
4570;BME280;2297;51.442;6.996;2023-03-03T00:38:23;101018.25;;;4.86;47.69
4570;BME280;2297;51.442;6.996;2023-03-03T00:40:49;101013.97;;;4.91;47.75
4570;BME280;2297;51.442;6.996;2023-03-03T00:43:19;101012.28;;;4.93;47.71
4570;BME280;2297;51.442;6.996;2023-03-03T00:45:47;101018.38;;;4.95;47.65
4570;BME280;2297;51.442;6.996;2023-03-03T00:48:25;101016.69;;;4.97;47.42
4570;BME280;2297;51.442;6.996;2023-03-03T00:50:54;101018.28;;;4.89;47.70
4570;BME280;2297;51.442;6.996;2023-03-03T00:53:23;101015.47;;;4.72;47.80
4570;BME280;2297;51.442;6.996;2023-03-03T00:55:51;101019.72;;;4.65;47.96
4570;BME280;2297;51.442;6.996;2023-03-03T00:58:19;101027.50;;;4.60;48.13
4570;BME280;2297;51.442;6.996;2023-03-03T01:00:47;101024.84;;;4.59;48.15
4570;BME280;2297;51.442;6.996;2023-03-03T01:03:16;101026.56;;;4.57;48.07
4570;BME280;2297;51.442;6.996;2023-03-03T01:05:44;101020.38;;;4.52;48.50
4570;BME280;2297;51.442;6.996;2023-03-03T01:08:11;101029.25;;;4.61;48.34
4570;BME280;2297;51.442;6.996;2023-03-03T01:10:43;101032.84;;;4.67;48.17
4570;BME280;2297;51.442;6.996;2023-03-03T01:13:11;101027.72;;;4.76;48.21
4570;BME280;2297;51.442;6.996;2023-03-03T01:15:39;101033.88;;;4.79;48.24
4570;BME280;2297;51.442;6.996;2023-03-03T01:18:06;101033.00;;;4.80;48.24
4570;BME280;2297;51.442;6.996;2023-03-03T01:20:32;101027.06;;;4.91;47.93
4570;BME280;2297;51.442;6.996;2023-03-03T01:22:59;101028.69;;;4.82;48.13
4570;BME280;2297;51.442;6.996;2023-03-03T01:25:26;101034.69;;;4.77;48.42
4570;BME280;2297;51.442;6.996;2023-03-03T01:27:54;101031.38;;;4.89;47.87
4570;BME280;2297;51.442;6.996;2023-03-03T01:30:20;101028.03;;;4.97;47.75
4570;BME280;2297;51.442;6.996;2023-03-03T01:32:47;101027.16;;;4.97;47.68
4570;BME280;2297;51.442;6.996;2023-03-03T01:35:14;101033.22;;;4.93;47.80
4570;BME280;2297;51.442;6.996;2023-03-03T01:37:40;101037.44;;;4.85;48.03
4570;BME280;2297;51.442;6.996;2023-03-03T01:40:13;101029.66;;;4.88;47.86
4570;BME280;2297;51.442;6.996;2023-03-03T01:42:53;101034.06;;;4.92;47.81
4570;BME280;2297;51.442;6.996;2023-03-03T01:45:22;101031.38;;;4.89;47.73
4570;BME280;2297;51.442;6.996;2023-03-03T01:48:00;101030.50;;;4.87;47.74
4570;BME280;2297;51.442;6.996;2023-03-03T01:50:35;101032.28;;;4.91;47.70
4570;BME280;2297;51.442;6.996;2023-03-03T01:53:05;101029.78;;;4.98;47.60
4570;BME280;2297;51.442;6.996;2023-03-03T01:55:38;101028.03;;;4.97;47.62
4570;BME280;2297;51.442;6.996;2023-03-03T01:58:10;101031.44;;;4.92;47.67
4570;BME280;2297;51.442;6.996;2023-03-03T02:00:41;101034.78;;;4.80;47.88
4570;BME280;2297;51.442;6.996;2023-03-03T02:03:10;101032.16;;;4.81;47.91
4570;BME280;2297;51.442;6.996;2023-03-03T02:05:37;101026.97;;;4.85;48.01
4570;BME280;2297;51.442;6.996;2023-03-03T02:08:06;101030.50;;;4.87;47.86
4570;BME280;2297;51.442;6.996;2023-03-03T02:10:36;101028.69;;;4.82;47.79
4570;BME280;2297;51.442;6.996;2023-03-03T02:13:02;101020.63;;;4.67;48.02
4570;BME280;2297;51.442;6.996;2023-03-03T02:15:32;101020.63;;;4.69;48.23
4570;BME280;2297;51.442;6.996;2023-03-03T02:18:03;101013.72;;;4.72;48.17
4570;BME280;2297;51.442;6.996;2023-03-03T02:20:37;101010.19;;;4.70;48.20
4570;BME280;2297;51.442;6.996;2023-03-03T02:23:12;101000.50;;;4.63;48.33
4570;BME280;2297;51.442;6.996;2023-03-03T02:25:48;100999.56;;;4.61;48.48
4570;BME280;2297;51.442;6.996;2023-03-03T02:28:19;101003.81;;;4.53;48.88
4570;BME280;2297;51.442;6.996;2023-03-03T02:30:46;101010.94;;;4.60;48.57
4570;BME280;2297;51.442;6.996;2023-03-03T02:33:12;101010.00;;;4.56;48.31
4570;BME280;2297;51.442;6.996;2023-03-03T02:35:40;101014.28;;;4.53;48.59
4570;BME280;2297;51.442;6.996;2023-03-03T02:38:13;101020.50;;;4.61;48.26
4570;BME280;2297;51.442;6.996;2023-03-03T02:40:48;101026.63;;;4.60;48.34
4570;BME280;2297;51.442;6.996;2023-03-03T02:43:22;101038.75;;;4.55;48.28
4570;BME280;2297;51.442;6.996;2023-03-03T02:45:51;101035.16;;;4.46;48.63
4570;BME280;2297;51.442;6.996;2023-03-03T02:48:18;101025.66;;;4.53;48.37
4570;BME280;2297;51.442;6.996;2023-03-03T02:50:44;101032.63;;;4.54;48.54
4570;BME280;2297;51.442;6.996;2023-03-03T02:53:11;101034.25;;;4.47;48.69
4570;BME280;2297;51.442;6.996;2023-03-03T02:55:38;101024.75;;;4.53;48.64
4570;BME280;2297;51.442;6.996;2023-03-03T02:58:04;101029.00;;;4.46;48.76
4570;BME280;2297;51.442;6.996;2023-03-03T03:00:32;101022.94;;;4.48;48.67
4570;BME280;2297;51.442;6.996;2023-03-03T03:02:59;101028.16;;;4.45;48.58
4570;BME280;2297;51.442;6.996;2023-03-03T03:05:25;101021.09;;;4.41;48.81
4570;BME280;2297;51.442;6.996;2023-03-03T03:07:53;101020.16;;;4.36;48.77
4570;BME280;2297;51.442;6.996;2023-03-03T03:10:19;101024.53;;;4.37;48.97
4570;BME280;2297;51.442;6.996;2023-03-03T03:12:46;101032.44;;;4.42;48.83
4570;BME280;2297;51.442;6.996;2023-03-03T03:15:13;101023.72;;;4.40;48.94
4570;BME280;2297;51.442;6.996;2023-03-03T03:17:41;101028.81;;;4.32;48.98
4570;BME280;2297;51.442;6.996;2023-03-03T03:20:09;101035.88;;;4.39;49.17
4570;BME280;2297;51.442;6.996;2023-03-03T03:22:35;101030.81;;;4.48;48.93
4570;BME280;2297;51.442;6.996;2023-03-03T03:25:02;101042.25;;;4.57;48.72
4570;BME280;2297;51.442;6.996;2023-03-03T03:27:29;101044.97;;;4.61;48.43
4570;BME280;2297;51.442;6.996;2023-03-03T03:29:55;101046.63;;;4.58;48.31
4570;BME280;2297;51.442;6.996;2023-03-03T03:32:22;101047.50;;;4.57;48.32
4570;BME280;2297;51.442;6.996;2023-03-03T03:34:50;101042.25;;;4.57;48.35
4570;BME280;2297;51.442;6.996;2023-03-03T03:37:17;101045.78;;;4.59;48.38
4570;BME280;2297;51.442;6.996;2023-03-03T03:39:43;101042.19;;;4.51;48.41
4570;BME280;2297;51.442;6.996;2023-03-03T03:42:10;101043.84;;;4.45;48.69
4570;BME280;2297;51.442;6.996;2023-03-03T03:44:36;101055.13;;;4.41;48.70
4570;BME280;2297;51.442;6.996;2023-03-03T03:47:03;101046.28;;;4.35;48.71
4570;BME280;2297;51.442;6.996;2023-03-03T03:49:30;101043.69;;;4.36;48.58
4570;BME280;2297;51.442;6.996;2023-03-03T03:51:58;101047.91;;;4.28;48.93
4570;BME280;2297;51.442;6.996;2023-03-03T03:54:24;101054.81;;;4.23;49.26
4570;BME280;2297;51.442;6.996;2023-03-03T03:56:51;101053.59;;;4.05;49.89
4570;BME280;2297;51.442;6.996;2023-03-03T03:59:19;101062.53;;;4.17;49.46
4570;BME280;2297;51.442;6.996;2023-03-03T04:01:45;101060.00;;;4.21;49.40
4570;BME280;2297;51.442;6.996;2023-03-03T04:04:14;101056.44;;;4.16;49.53
4570;BME280;2297;51.442;6.996;2023-03-03T04:06:41;101064.47;;;4.28;49.35
4570;BME280;2297;51.442;6.996;2023-03-03T04:09:09;101061.88;;;4.28;49.29
4570;BME280;2297;51.442;6.996;2023-03-03T04:11:35;101071.53;;;4.32;48.98
4570;BME280;2297;51.442;6.996;2023-03-03T04:14:02;101064.59;;;4.35;48.97
4570;BME280;2297;51.442;6.996;2023-03-03T04:16:28;101068.72;;;4.22;49.37
4570;BME280;2297;51.442;6.996;2023-03-03T04:18:55;101064.50;;;4.30;49.08
4570;BME280;2297;51.442;6.996;2023-03-03T04:21:22;101059.31;;;4.33;48.69
4570;BME280;2297;51.442;6.996;2023-03-03T04:23:49;101059.38;;;4.36;48.64
4570;BME280;2297;51.442;6.996;2023-03-03T04:26:19;101069.72;;;4.30;48.58
4570;BME280;2297;51.442;6.996;2023-03-03T04:28:45;101059.22;;;4.27;48.65
4570;BME280;2297;51.442;6.996;2023-03-03T04:31:12;101067.00;;;4.24;48.68
4570;BME280;2297;51.442;6.996;2023-03-03T04:33:38;101066.09;;;4.20;48.65
4570;BME280;2297;51.442;6.996;2023-03-03T04:36:05;101061.41;;;4.04;48.96
4570;BME280;2297;51.442;6.996;2023-03-03T04:38:32;101061.66;;;4.16;48.74
4570;BME280;2297;51.442;6.996;2023-03-03T04:40:58;101065.06;;;4.12;49.01
4570;BME280;2297;51.442;6.996;2023-03-03T04:43:26;101067.78;;;4.18;48.79
4570;BME280;2297;51.442;6.996;2023-03-03T04:45:53;101063.47;;;4.20;48.73
4570;BME280;2297;51.442;6.996;2023-03-03T04:48:20;101068.75;;;4.23;48.60
4570;BME280;2297;51.442;6.996;2023-03-03T04:50:46;101070.50;;;4.23;48.63
4570;BME280;2297;51.442;6.996;2023-03-03T04:53:13;101064.97;;;4.06;48.85
4570;BME280;2297;51.442;6.996;2023-03-03T04:55:39;101074.31;;;3.93;49.40
4570;BME280;2297;51.442;6.996;2023-03-03T04:58:06;101074.34;;;3.96;49.21
4570;BME280;2297;51.442;6.996;2023-03-03T05:00:36;101070.13;;;4.03;49.36
4570;BME280;2297;51.442;6.996;2023-03-03T05:03:03;101078.06;;;4.09;49.16
4570;BME280;2297;51.442;6.996;2023-03-03T05:05:29;101081.59;;;4.09;48.63
4570;BME280;2297;51.442;6.996;2023-03-03T05:07:56;101072.81;;;4.06;48.61
4570;BME280;2297;51.442;6.996;2023-03-03T05:10:23;101076.19;;;4.00;48.82
4570;BME280;2297;51.442;6.996;2023-03-03T05:12:50;101070.75;;;3.89;49.13
4570;BME280;2297;51.442;6.996;2023-03-03T05:15:17;101072.47;;;3.89;49.24
4570;BME280;2297;51.442;6.996;2023-03-03T05:17:45;101069.13;;;3.96;48.93
4570;BME280;2297;51.442;6.996;2023-03-03T05:20:12;101069.19;;;3.99;48.62
4570;BME280;2297;51.442;6.996;2023-03-03T05:22:38;101069.19;;;3.99;48.92
4570;BME280;2297;51.442;6.996;2023-03-03T05:25:06;101073.59;;;4.02;48.80
4570;BME280;2297;51.442;6.996;2023-03-03T05:27:34;101077.94;;;4.01;48.57
4570;BME280;2297;51.442;6.996;2023-03-03T05:30:00;101072.78;;;4.04;48.87
4570;BME280;2297;51.442;6.996;2023-03-03T05:32:27;101070.00;;;3.95;48.88
4570;BME280;2297;51.442;6.996;2023-03-03T05:34:55;101063.69;;;3.85;49.19
4570;BME280;2297;51.442;6.996;2023-03-03T05:37:21;101077.59;;;3.82;49.43
4570;BME280;2297;51.442;6.996;2023-03-03T05:39:48;101068.19;;;3.91;49.28
4570;BME280;2297;51.442;6.996;2023-03-03T05:42:15;101072.66;;;3.98;49.21
4570;BME280;2297;51.442;6.996;2023-03-03T05:44:42;101074.47;;;4.02;48.72
4570;BME280;2297;51.442;6.996;2023-03-03T05:47:08;101076.84;;;3.88;48.98
4570;BME280;2297;51.442;6.996;2023-03-03T05:49:35;101083.00;;;3.92;49.14
4570;BME280;2297;51.442;6.996;2023-03-03T05:52:04;101088.16;;;3.89;49.24
4570;BME280;2297;51.442;6.996;2023-03-03T05:54:30;101088.28;;;3.95;49.17
4570;BME280;2297;51.442;6.996;2023-03-03T05:56:57;101082.16;;;3.94;49.05
4570;BME280;2297;51.442;6.996;2023-03-03T05:59:24;101083.88;;;3.92;49.29
4570;BME280;2297;51.442;6.996;2023-03-03T06:01:50;101084.88;;;3.99;48.88
4570;BME280;2297;51.442;6.996;2023-03-03T06:04:17;101081.41;;;4.00;49.23
4570;BME280;2297;51.442;6.996;2023-03-03T06:06:43;101088.34;;;3.98;49.18
4570;BME280;2297;51.442;6.996;2023-03-03T06:09:11;101086.53;;;3.94;49.35
4570;BME280;2297;51.442;6.996;2023-03-03T06:11:38;101086.56;;;3.97;48.96
4570;BME280;2297;51.442;6.996;2023-03-03T06:14:04;101081.28;;;3.94;49.14
4570;BME280;2297;51.442;6.996;2023-03-03T06:16:31;101093.41;;;3.90;49.36
4570;BME280;2297;51.442;6.996;2023-03-03T06:18:58;101097.81;;;3.93;49.28
4570;BME280;2297;51.442;6.996;2023-03-03T06:21:25;101103.88;;;3.90;48.88
4570;BME280;2297;51.442;6.996;2023-03-03T06:23:52;101109.03;;;3.86;48.92
4570;BME280;2297;51.442;6.996;2023-03-03T06:26:20;101104.53;;;3.80;49.19
4570;BME280;2297;51.442;6.996;2023-03-03T06:28:47;101112.47;;;3.85;49.38
4570;BME280;2297;51.442;6.996;2023-03-03T06:31:14;101122.88;;;3.81;49.68
4570;BME280;2297;51.442;6.996;2023-03-03T06:33:41;101124.38;;;3.72;49.49
4570;BME280;2297;51.442;6.996;2023-03-03T06:36:07;101116.72;;;3.78;49.56
4570;BME280;2297;51.442;6.996;2023-03-03T06:38:35;101117.31;;;3.66;50.13
4570;BME280;2297;51.442;6.996;2023-03-03T06:41:02;101114.06;;;3.76;49.92
4570;BME280;2297;51.442;6.996;2023-03-03T06:43:32;101123.41;;;3.67;50.25
4570;BME280;2297;51.442;6.996;2023-03-03T06:45:59;101118.53;;;3.82;50.67
4570;BME280;2297;51.442;6.996;2023-03-03T06:48:26;101130.13;;;3.95;49.70
4570;BME280;2297;51.442;6.996;2023-03-03T06:50:52;101140.56;;;3.95;49.73
4570;BME280;2297;51.442;6.996;2023-03-03T06:53:19;101136.19;;;3.94;49.12
4570;BME280;2297;51.442;6.996;2023-03-03T06:55:46;101136.22;;;3.97;49.40
4570;BME280;2297;51.442;6.996;2023-03-03T06:58:14;101146.88;;;4.06;48.94
4570;BME280;2297;51.442;6.996;2023-03-03T07:00:44;101145.91;;;4.01;48.85
4570;BME280;2297;51.442;6.996;2023-03-03T07:03:14;101140.53;;;3.93;49.38
4570;BME280;2297;51.442;6.996;2023-03-03T07:05:41;101145.91;;;4.01;48.74
4570;BME280;2297;51.442;6.996;2023-03-03T07:08:12;101144.19;;;4.02;48.46
4570;BME280;2297;51.442;6.996;2023-03-03T07:10:39;101142.13;;;3.87;49.66
4570;BME280;2297;51.442;6.996;2023-03-03T07:13:16;101153.03;;;4.08;49.13
4570;BME280;2297;51.442;6.996;2023-03-03T07:15:45;101149.66;;;4.15;48.56
4570;BME280;2297;51.442;6.996;2023-03-03T07:18:29;101147.06;;;4.17;48.75
4570;BME280;2297;51.442;6.996;2023-03-03T07:20:58;101149.84;;;4.25;47.93
4570;BME280;2297;51.442;6.996;2023-03-03T07:23:27;101154.22;;;4.26;47.91
4570;BME280;2297;51.442;6.996;2023-03-03T07:25:57;101154.22;;;4.26;48.03
4570;BME280;2297;51.442;6.996;2023-03-03T07:28:25;101162.09;;;4.29;47.83
4570;BME280;2297;51.442;6.996;2023-03-03T07:30:55;101154.34;;;4.32;47.83
4570;BME280;2297;51.442;6.996;2023-03-03T07:33:25;101166.34;;;4.22;47.79
4570;BME280;2297;51.442;6.996;2023-03-03T07:35:53;101162.81;;;4.19;48.18
4570;BME280;2297;51.442;6.996;2023-03-03T07:38:24;101167.25;;;4.23;48.04
4570;BME280;2297;51.442;6.996;2023-03-03T07:40:55;101170.88;;;4.31;47.80
4570;BME280;2297;51.442;6.996;2023-03-03T07:43:34;101172.56;;;4.29;47.97
4570;BME280;2297;51.442;6.996;2023-03-03T07:46:22;101184.81;;;4.30;47.68
4570;BME280;2297;51.442;6.996;2023-03-03T07:48:52;101182.13;;;4.25;47.93
4570;BME280;2297;51.442;6.996;2023-03-03T07:51:21;101188.34;;;4.32;47.70
4570;BME280;2297;51.442;6.996;2023-03-03T07:53:49;101192.66;;;4.30;48.07
4570;BME280;2297;51.442;6.996;2023-03-03T07:56:25;101192.84;;;4.41;47.38
4570;BME280;2297;51.442;6.996;2023-03-03T07:58:53;101197.94;;;4.33;48.18
4570;BME280;2297;51.442;6.996;2023-03-03T08:01:43;101204.13;;;4.38;47.64
4570;BME280;2297;51.442;6.996;2023-03-03T08:04:17;101203.34;;;4.42;47.27
4570;BME280;2297;51.442;6.996;2023-03-03T08:06:47;101205.94;;;4.42;47.21
4570;BME280;2297;51.442;6.996;2023-03-03T08:12:30;101202.38;;;4.37;47.20
4570;BME280;2297;51.442;6.996;2023-03-03T08:15:13;101206.75;;;4.38;47.30
4570;BME280;2297;51.442;6.996;2023-03-03T08:17:44;101214.59;;;4.38;47.65
4570;BME280;2297;51.442;6.996;2023-03-03T08:20:38;101206.84;;;4.43;47.41
4570;BME280;2297;51.442;6.996;2023-03-03T08:23:06;101211.16;;;4.41;47.28
4570;BME280;2297;51.442;6.996;2023-03-03T08:25:33;101216.41;;;4.42;47.66
4570;BME280;2297;51.442;6.996;2023-03-03T08:27:59;101216.50;;;4.45;47.65
4570;BME280;2297;51.442;6.996;2023-03-03T08:30:26;101218.38;;;4.54;46.99
4570;BME280;2297;51.442;6.996;2023-03-03T08:32:54;101215.75;;;4.54;46.93
4570;BME280;2297;51.442;6.996;2023-03-03T08:35:21;101225.34;;;4.54;47.04
4570;BME280;2297;51.442;6.996;2023-03-03T08:37:47;101223.59;;;4.53;47.03
4570;BME280;2297;51.442;6.996;2023-03-03T08:40:14;101229.56;;;4.45;47.11
4570;BME280;2297;51.442;6.996;2023-03-03T08:42:40;101227.81;;;4.44;47.02
4570;BME280;2297;51.442;6.996;2023-03-03T08:45:07;101235.75;;;4.49;46.81
4570;BME280;2297;51.442;6.996;2023-03-03T08:47:37;101232.34;;;4.55;47.00
4570;BME280;2297;51.442;6.996;2023-03-03T08:50:05;101231.47;;;4.54;47.00
4570;BME280;2297;51.442;6.996;2023-03-03T08:52:32;101230.63;;;4.57;47.07
4570;BME280;2297;51.442;6.996;2023-03-03T08:54:59;101238.59;;;4.63;46.80
4570;BME280;2297;51.442;6.996;2023-03-03T08:57:26;101237.63;;;4.58;47.11
4570;BME280;2297;51.442;6.996;2023-03-03T08:59:52;101240.41;;;4.65;47.02
4570;BME280;2297;51.442;6.996;2023-03-03T09:02:19;101239.47;;;4.63;47.30
4570;BME280;2297;51.442;6.996;2023-03-03T09:04:46;101238.84;;;4.77;46.40
4570;BME280;2297;51.442;6.996;2023-03-03T09:07:14;101247.50;;;4.73;46.62
4570;BME280;2297;51.442;6.996;2023-03-03T09:09:40;101251.91;;;4.75;46.67
4570;BME280;2297;51.442;6.996;2023-03-03T09:12:14;101249.25;;;4.74;46.49
4570;BME280;2297;51.442;6.996;2023-03-03T09:14:42;101247.38;;;4.65;46.99
4570;BME280;2297;51.442;6.996;2023-03-03T09:17:23;101252.66;;;4.68;46.77
4570;BME280;2297;51.442;6.996;2023-03-03T09:19:50;101253.63;;;4.73;46.89
4570;BME280;2297;51.442;6.996;2023-03-03T09:22:20;101255.56;;;4.84;46.70
4570;BME280;2297;51.442;6.996;2023-03-03T09:24:49;101260.69;;;4.77;46.52
4570;BME280;2297;51.442;6.996;2023-03-03T09:27:23;101253.63;;;4.73;46.61
4570;BME280;2297;51.442;6.996;2023-03-03T09:29:52;101252.03;;;4.81;46.55
4570;BME280;2297;51.442;6.996;2023-03-03T09:32:26;101255.28;;;4.68;47.04
4570;BME280;2297;51.442;6.996;2023-03-03T09:34:55;101250.91;;;4.69;47.09
4570;BME280;2297;51.442;6.996;2023-03-03T09:37:26;101250.94;;;4.70;47.01
4570;BME280;2297;51.442;6.996;2023-03-03T09:39:56;101259.00;;;4.81;46.87
4570;BME280;2297;51.442;6.996;2023-03-03T09:42:40;101258.78;;;4.70;47.22
4570;BME280;2297;51.442;6.996;2023-03-03T09:45:34;101268.66;;;4.84;46.77
4570;BME280;2297;51.442;6.996;2023-03-03T09:48:20;101265.25;;;4.89;46.80
4570;BME280;2297;51.442;6.996;2023-03-03T09:50:57;101265.41;;;4.98;46.39
4570;BME280;2297;51.442;6.996;2023-03-03T09:53:39;101257.50;;;4.95;46.33
4570;BME280;2297;51.442;6.996;2023-03-03T09:56:15;101268.81;;;4.93;46.81
4570;BME280;2297;51.442;6.996;2023-03-03T09:58:52;101267.22;;;5.03;46.41
4570;BME280;2297;51.442;6.996;2023-03-03T10:01:42;101270.00;;;5.10;46.26
4570;BME280;2297;51.442;6.996;2023-03-03T10:04:38;101269.03;;;5.07;46.05
4570;BME280;2297;51.442;6.996;2023-03-03T10:07:22;101267.38;;;5.10;46.17
4570;BME280;2297;51.442;6.996;2023-03-03T10:10:02;101266.53;;;5.13;46.07
4570;BME280;2297;51.442;6.996;2023-03-03T10:12:37;101278.84;;;5.19;45.88
4570;BME280;2297;51.442;6.996;2023-03-03T10:15:16;101277.88;;;5.12;46.02
4570;BME280;2297;51.442;6.996;2023-03-03T10:17:49;101273.47;;;5.09;46.17
4570;BME280;2297;51.442;6.996;2023-03-03T10:20:36;101282.25;;;5.11;46.36
4570;BME280;2297;51.442;6.996;2023-03-03T10:23:13;101280.47;;;5.10;46.65
4570;BME280;2297;51.442;6.996;2023-03-03T10:25:52;101282.25;;;5.13;46.50
4570;BME280;2297;51.442;6.996;2023-03-03T10:28:52;101290.19;;;5.19;46.40
4570;BME280;2297;51.442;6.996;2023-03-03T10:31:36;101277.88;;;5.13;45.53
4570;BME280;2297;51.442;6.996;2023-03-03T10:34:17;101286.72;;;5.19;45.64
4570;BME280;2297;51.442;6.996;2023-03-03T10:36:52;101285.94;;;5.26;45.68
4570;BME280;2297;51.442;6.996;2023-03-03T10:39:39;101286.00;;;5.29;45.41
4570;BME280;2297;51.442;6.996;2023-03-03T10:42:25;101296.53;;;5.32;45.72
4570;BME280;2297;51.442;6.996;2023-03-03T10:45:05;101287.06;;;5.40;45.10
4570;BME280;2297;51.442;6.996;2023-03-03T10:47:53;101288.00;;;5.44;44.58
4570;BME280;2297;51.442;6.996;2023-03-03T10:50:26;101287.97;;;5.42;44.69
4570;BME280;2297;51.442;6.996;2023-03-03T10:53:06;101283.75;;;5.52;44.89
4570;BME280;2297;51.442;6.996;2023-03-03T10:55:42;101286.50;;;5.60;44.31
4570;BME280;2297;51.442;6.996;2023-03-03T10:58:38;101295.34;;;5.65;44.40
4570;BME280;2297;51.442;6.996;2023-03-03T11:01:13;101294.34;;;5.60;44.32
4570;BME280;2297;51.442;6.996;2023-03-03T11:06:48;101298.72;;;5.59;43.84
4570;BME280;2297;51.442;6.996;2023-03-03T11:09:33;101293.41;;;5.56;43.86
4570;BME280;2297;51.442;6.996;2023-03-03T11:12:14;101294.38;;;5.63;43.84
4570;BME280;2297;51.442;6.996;2023-03-03T11:14:49;101289.97;;;5.59;44.13
4570;BME280;2297;51.442;6.996;2023-03-03T11:17:22;101291.88;;;5.66;44.01
4570;BME280;2297;51.442;6.996;2023-03-03T11:20:00;101282.34;;;5.73;43.70
4570;BME280;2297;51.442;6.996;2023-03-03T11:22:41;101283.31;;;5.79;43.36
4570;BME280;2297;51.442;6.996;2023-03-03T11:25:25;101291.22;;;5.84;43.50
4570;BME280;2297;51.442;6.996;2023-03-03T11:28:00;101286.97;;;5.91;43.40
4570;BME280;2297;51.442;6.996;2023-03-03T11:30:45;101285.38;;;6.02;42.98
4570;BME280;2297;51.442;6.996;2023-03-03T11:33:19;101281.84;;;6.00;42.85
4570;BME280;2297;51.442;6.996;2023-03-03T11:35:51;101279.19;;;5.98;42.68
4570;BME280;2297;51.442;6.996;2023-03-03T11:38:32;101275.75;;;6.03;42.62
4570;BME280;2297;51.442;6.996;2023-03-03T11:41:07;101276.59;;;6.00;42.79
4570;BME280;2297;51.442;6.996;2023-03-03T11:43:40;101270.59;;;6.07;42.76
4570;BME280;2297;51.442;6.996;2023-03-03T11:46:12;101268.13;;;6.20;42.97
4570;BME280;2297;51.442;6.996;2023-03-03T11:48:45;101270.75;;;6.21;42.36
4570;BME280;2297;51.442;6.996;2023-03-03T11:51:19;101268.13;;;6.20;42.33
4570;BME280;2297;51.442;6.996;2023-03-03T11:53:56;101258.59;;;6.28;42.31
4570;BME280;2297;51.442;6.996;2023-03-03T11:56:29;101263.94;;;6.37;42.58
4570;BME280;2297;51.442;6.996;2023-03-03T11:59:15;101257.91;;;6.44;42.24
4570;BME280;2297;51.442;6.996;2023-03-03T12:01:52;101261.44;;;6.46;42.13
4570;BME280;2297;51.442;6.996;2023-03-03T12:04:22;101265.72;;;6.40;42.31
4570;BME280;2297;51.442;6.996;2023-03-03T12:07:06;101261.94;;;6.14;42.09
4570;BME280;2297;51.442;6.996;2023-03-03T12:09:44;101258.53;;;6.23;42.51
4570;BME280;2297;51.442;6.996;2023-03-03T12:12:18;101257.59;;;6.18;42.98
4570;BME280;2297;51.442;6.996;2023-03-03T12:14:56;101252.38;;;6.20;42.92
4570;BME280;2297;51.442;6.996;2023-03-03T12:17:39;101258.59;;;6.28;42.81
4570;BME280;2297;51.442;6.996;2023-03-03T12:20:16;101249.84;;;6.29;42.60
4570;BME280;2297;51.442;6.996;2023-03-03T12:22:51;101249.09;;;6.36;42.54
4570;BME280;2297;51.442;6.996;2023-03-03T12:25:28;101246.53;;;6.44;42.48
4570;BME280;2297;51.442;6.996;2023-03-03T12:28:02;101243.75;;;6.30;42.33
4570;BME280;2297;51.442;6.996;2023-03-03T12:31:00;101236.81;;;6.35;42.68
4570;BME280;2297;51.442;6.996;2023-03-03T12:33:43;101240.41;;;6.43;42.15
4570;BME280;2297;51.442;6.996;2023-03-03T12:36:24;101243.31;;;6.68;41.66
4570;BME280;2297;51.442;6.996;2023-03-03T12:39:01;101236.28;;;6.65;41.42
4570;BME280;2297;51.442;6.996;2023-03-03T12:41:36;101237.13;;;6.66;42.00
4570;BME280;2297;51.442;6.996;2023-03-03T12:44:13;101234.63;;;6.78;41.71
4570;BME280;2297;51.442;6.996;2023-03-03T12:46:44;101235.56;;;6.84;41.36
4570;BME280;2297;51.442;6.996;2023-03-03T12:49:13;101233.91;;;6.92;41.49
4570;BME280;2297;51.442;6.996;2023-03-03T12:51:49;101233.91;;;6.92;41.51
4570;BME280;2297;51.442;6.996;2023-03-03T12:54:32;101237.38;;;6.91;41.47
4570;BME280;2297;51.442;6.996;2023-03-03T12:57:08;101236.44;;;6.82;41.59
4570;BME280;2297;51.442;6.996;2023-03-03T12:59:43;101241.78;;;6.92;41.12
4570;BME280;2297;51.442;6.996;2023-03-03T13:05:37;101240.84;;;6.87;41.11
4570;BME280;2297;51.442;6.996;2023-03-03T13:08:19;101241.69;;;6.84;40.65
4570;BME280;2297;51.442;6.996;2023-03-03T13:10:58;101236.50;;;6.90;40.66
4570;BME280;2297;51.442;6.996;2023-03-03T13:13:30;101239.16;;;6.95;41.01
4570;BME280;2297;51.442;6.996;2023-03-03T13:16:01;101236.69;;;7.12;40.65
4570;BME280;2297;51.442;6.996;2023-03-03T13:18:38;101233.34;;;7.28;40.65
4570;BME280;2297;51.442;6.996;2023-03-03T13:21:17;101228.16;;;7.38;40.16
4570;BME280;2297;51.442;6.996;2023-03-03T13:23:50;101225.53;;;7.39;40.14
4570;BME280;2297;51.442;6.996;2023-03-03T13:26:25;101222.81;;;7.28;40.34
4570;BME280;2297;51.442;6.996;2023-03-03T13:28:58;101229.84;;;7.31;39.95
4570;BME280;2297;51.442;6.996;2023-03-03T13:31:32;101230.59;;;7.16;39.95
4570;BME280;2297;51.442;6.996;2023-03-03T13:34:00;101232.38;;;7.19;39.70
4570;BME280;2297;51.442;6.996;2023-03-03T13:37:00;101226.25;;;7.21;40.17
4570;BME280;2297;51.442;6.996;2023-03-03T13:39:32;101230.84;;;7.48;40.03
4570;BME280;2297;51.442;6.996;2023-03-03T13:42:07;101230.91;;;7.58;39.35
4570;BME280;2297;51.442;6.996;2023-03-03T13:44:40;101227.56;;;7.82;39.21
4570;BME280;2297;51.442;6.996;2023-03-03T13:47:13;101225.84;;;7.95;39.36
4570;BME280;2297;51.442;6.996;2023-03-03T13:49:58;101220.56;;;7.92;39.02
4570;BME280;2297;51.442;6.996;2023-03-03T13:52:28;101218.84;;;7.97;39.28
4570;BME280;2297;51.442;6.996;2023-03-03T13:55:12;101222.38;;;8.08;39.09